sensor_id;sensor_type;location;lat;lon;timestamp;P1;durP1;ratioP1;P2;durP2;ratioP2
5549;SDS011;2798;42.716;23.256;2023-02-20T00:03:08;11.53;;;8.00;;
5549;SDS011;2798;42.716;23.256;2023-02-20T00:05:33;11.20;;;8.10;;
5549;SDS011;2798;42.716;23.256;2023-02-20T00:07:59;12.43;;;7.97;;
5549;SDS011;2798;42.716;23.256;2023-02-20T00:10:24;12.23;;;8.20;;
5549;SDS011;2798;42.716;23.256;2023-02-20T00:12:50;11.50;;;8.30;;
5549;SDS011;2798;42.716;23.256;2023-02-20T00:15:16;12.10;;;8.70;;
5549;SDS011;2798;42.716;23.256;2023-02-20T00:17:43;15.10;;;9.13;;
5549;SDS011;2798;42.716;23.256;2023-02-20T00:20:12;11.17;;;8.30;;
5549;SDS011;2798;42.716;23.256;2023-02-20T00:22:37;13.73;;;7.80;;
5549;SDS011;2798;42.716;23.256;2023-02-20T00:25:02;12.43;;;8.83;;
5549;SDS011;2798;42.716;23.256;2023-02-20T00:27:28;9.87;;;7.60;;
5549;SDS011;2798;42.716;23.256;2023-02-20T00:29:53;10.30;;;7.83;;
5549;SDS011;2798;42.716;23.256;2023-02-20T00:32:18;9.20;;;7.60;;
5549;SDS011;2798;42.716;23.256;2023-02-20T00:34:43;10.37;;;7.20;;
5549;SDS011;2798;42.716;23.256;2023-02-20T00:37:09;12.10;;;8.17;;
5549;SDS011;2798;42.716;23.256;2023-02-20T00:39:34;13.20;;;7.97;;
5549;SDS011;2798;42.716;23.256;2023-02-20T00:41:59;9.97;;;7.50;;
5549;SDS011;2798;42.716;23.256;2023-02-20T00:44:25;14.00;;;8.33;;
5549;SDS011;2798;42.716;23.256;2023-02-20T00:46:50;11.63;;;8.00;;
5549;SDS011;2798;42.716;23.256;2023-02-20T00:49:15;13.30;;;7.47;;
5549;SDS011;2798;42.716;23.256;2023-02-20T00:51:40;12.80;;;8.17;;
5549;SDS011;2798;42.716;23.256;2023-02-20T00:54:06;12.70;;;8.50;;
5549;SDS011;2798;42.716;23.256;2023-02-20T00:56:31;11.73;;;7.90;;
5549;SDS011;2798;42.716;23.256;2023-02-20T00:58:56;9.67;;;7.67;;
5549;SDS011;2798;42.716;23.256;2023-02-20T01:01:21;10.67;;;8.07;;
5549;SDS011;2798;42.716;23.256;2023-02-20T01:03:47;11.60;;;7.90;;
5549;SDS011;2798;42.716;23.256;2023-02-20T01:06:12;8.90;;;7.20;;
5549;SDS011;2798;42.716;23.256;2023-02-20T01:08:37;10.60;;;8.20;;
5549;SDS011;2798;42.716;23.256;2023-02-20T01:11:03;11.63;;;8.57;;
5549;SDS011;2798;42.716;23.256;2023-02-20T01:13:28;11.53;;;8.33;;
5549;SDS011;2798;42.716;23.256;2023-02-20T01:15:53;11.30;;;8.33;;
5549;SDS011;2798;42.716;23.256;2023-02-20T01:18:19;11.47;;;8.33;;
5549;SDS011;2798;42.716;23.256;2023-02-20T01:20:44;13.10;;;8.90;;
5549;SDS011;2798;42.716;23.256;2023-02-20T01:23:09;11.27;;;7.80;;
5549;SDS011;2798;42.716;23.256;2023-02-20T01:25:34;11.80;;;8.70;;
5549;SDS011;2798;42.716;23.256;2023-02-20T01:28:00;12.20;;;8.47;;
5549;SDS011;2798;42.716;23.256;2023-02-20T01:30:25;13.20;;;9.30;;
5549;SDS011;2798;42.716;23.256;2023-02-20T01:32:50;10.50;;;8.93;;
5549;SDS011;2798;42.716;23.256;2023-02-20T01:35:15;9.83;;;8.10;;
5549;SDS011;2798;42.716;23.256;2023-02-20T01:37:41;16.73;;;8.83;;
5549;SDS011;2798;42.716;23.256;2023-02-20T01:40:07;11.70;;;8.33;;
5549;SDS011;2798;42.716;23.256;2023-02-20T01:42:32;13.50;;;8.60;;
5549;SDS011;2798;42.716;23.256;2023-02-20T01:45:14;12.07;;;7.80;;
5549;SDS011;2798;42.716;23.256;2023-02-20T01:47:40;14.17;;;9.83;;
5549;SDS011;2798;42.716;23.256;2023-02-20T01:50:05;13.27;;;9.10;;
5549;SDS011;2798;42.716;23.256;2023-02-20T01:52:32;14.17;;;9.47;;
5549;SDS011;2798;42.716;23.256;2023-02-20T01:55:00;12.20;;;9.13;;
5549;SDS011;2798;42.716;23.256;2023-02-20T01:57:28;11.57;;;8.43;;
5549;SDS011;2798;42.716;23.256;2023-02-20T01:59:55;13.67;;;9.23;;
5549;SDS011;2798;42.716;23.256;2023-02-20T02:02:22;16.53;;;10.07;;
5549;SDS011;2798;42.716;23.256;2023-02-20T02:04:48;13.07;;;8.57;;
5549;SDS011;2798;42.716;23.256;2023-02-20T02:07:14;16.10;;;8.40;;
5549;SDS011;2798;42.716;23.256;2023-02-20T02:09:50;13.93;;;7.33;;
5549;SDS011;2798;42.716;23.256;2023-02-20T02:12:17;9.50;;;6.47;;
5549;SDS011;2798;42.716;23.256;2023-02-20T02:14:42;11.37;;;7.37;;
5549;SDS011;2798;42.716;23.256;2023-02-20T02:37:46;4.50;;;3.60;;
5549;SDS011;2798;42.716;23.256;2023-02-20T02:44:56;3.97;;;3.57;;
5549;SDS011;2798;42.716;23.256;2023-02-20T02:47:45;6.03;;;3.53;;
5549;SDS011;2798;42.716;23.256;2023-02-20T02:50:20;3.80;;;3.50;;
5549;SDS011;2798;42.716;23.256;2023-02-20T02:52:47;3.53;;;3.13;;
5549;SDS011;2798;42.716;23.256;2023-02-20T02:55:15;3.50;;;3.20;;
5549;SDS011;2798;42.716;23.256;2023-02-20T02:57:40;4.30;;;3.60;;
5549;SDS011;2798;42.716;23.256;2023-02-20T03:00:10;4.03;;;3.63;;
5549;SDS011;2798;42.716;23.256;2023-02-20T03:02:41;4.40;;;3.60;;
5549;SDS011;2798;42.716;23.256;2023-02-20T03:05:08;5.37;;;3.73;;
5549;SDS011;2798;42.716;23.256;2023-02-20T03:07:35;4.13;;;3.30;;
5549;SDS011;2798;42.716;23.256;2023-02-20T03:10:06;3.90;;;3.50;;
5549;SDS011;2798;42.716;23.256;2023-02-20T03:12:32;3.90;;;3.50;;
5549;SDS011;2798;42.716;23.256;2023-02-20T03:15:00;4.93;;;3.10;;
5549;SDS011;2798;42.716;23.256;2023-02-20T03:17:48;3.20;;;2.90;;
5549;SDS011;2798;42.716;23.256;2023-02-20T03:20:17;2.87;;;2.57;;
5549;SDS011;2798;42.716;23.256;2023-02-20T03:22:45;2.83;;;2.60;;
5549;SDS011;2798;42.716;23.256;2023-02-20T03:25:16;2.90;;;2.70;;
5549;SDS011;2798;42.716;23.256;2023-02-20T03:27:44;2.87;;;2.53;;
5549;SDS011;2798;42.716;23.256;2023-02-20T03:32:36;2.43;;;2.23;;
5549;SDS011;2798;42.716;23.256;2023-02-20T03:35:22;3.07;;;2.83;;
5549;SDS011;2798;42.716;23.256;2023-02-20T03:38:08;3.13;;;2.83;;
5549;SDS011;2798;42.716;23.256;2023-02-20T03:40:52;2.60;;;2.40;;
5549;SDS011;2798;42.716;23.256;2023-02-20T03:43:36;3.27;;;2.97;;
5549;SDS011;2798;42.716;23.256;2023-02-20T03:46:03;5.53;;;2.97;;
5549;SDS011;2798;42.716;23.256;2023-02-20T03:48:38;3.00;;;2.80;;
5549;SDS011;2798;42.716;23.256;2023-02-20T03:51:06;4.40;;;3.20;;
5549;SDS011;2798;42.716;23.256;2023-02-20T03:53:40;2.97;;;2.63;;
5549;SDS011;2798;42.716;23.256;2023-02-20T03:56:10;3.20;;;2.77;;
5549;SDS011;2798;42.716;23.256;2023-02-20T03:58:36;4.10;;;2.90;;
5549;SDS011;2798;42.716;23.256;2023-02-20T04:01:02;3.67;;;3.20;;
5549;SDS011;2798;42.716;23.256;2023-02-20T04:03:30;3.93;;;3.30;;
5549;SDS011;2798;42.716;23.256;2023-02-20T04:05:57;3.63;;;2.87;;
5549;SDS011;2798;42.716;23.256;2023-02-20T04:08:30;3.93;;;3.13;;
5549;SDS011;2798;42.716;23.256;2023-02-20T04:11:05;2.83;;;2.63;;
5549;SDS011;2798;42.716;23.256;2023-02-20T04:13:30;3.77;;;3.10;;
5549;SDS011;2798;42.716;23.256;2023-02-20T04:15:57;4.03;;;3.10;;
5549;SDS011;2798;42.716;23.256;2023-02-20T04:18:23;3.23;;;2.93;;
5549;SDS011;2798;42.716;23.256;2023-02-20T04:20:51;3.30;;;2.93;;
5549;SDS011;2798;42.716;23.256;2023-02-20T04:23:18;3.40;;;2.87;;
5549;SDS011;2798;42.716;23.256;2023-02-20T04:25:45;7.50;;;3.00;;
5549;SDS011;2798;42.716;23.256;2023-02-20T04:28:12;3.27;;;2.97;;
5549;SDS011;2798;42.716;23.256;2023-02-20T04:30:38;3.90;;;2.60;;
5549;SDS011;2798;42.716;23.256;2023-02-20T04:33:03;3.40;;;2.50;;
5549;SDS011;2798;42.716;23.256;2023-02-20T04:35:28;4.50;;;3.10;;
5549;SDS011;2798;42.716;23.256;2023-02-20T04:37:54;5.00;;;3.60;;
5549;SDS011;2798;42.716;23.256;2023-02-20T04:40:20;4.83;;;3.50;;
5549;SDS011;2798;42.716;23.256;2023-02-20T04:42:46;4.80;;;3.57;;
5549;SDS011;2798;42.716;23.256;2023-02-20T04:45:11;3.20;;;2.80;;
5549;SDS011;2798;42.716;23.256;2023-02-20T04:47:36;3.73;;;3.17;;
5549;SDS011;2798;42.716;23.256;2023-02-20T04:50:03;3.60;;;3.13;;
5549;SDS011;2798;42.716;23.256;2023-02-20T04:52:28;3.10;;;2.77;;
5549;SDS011;2798;42.716;23.256;2023-02-20T04:54:53;3.77;;;3.20;;
5549;SDS011;2798;42.716;23.256;2023-02-20T04:57:19;3.03;;;2.60;;
5549;SDS011;2798;42.716;23.256;2023-02-20T04:59:44;3.07;;;2.80;;
5549;SDS011;2798;42.716;23.256;2023-02-20T05:02:09;3.30;;;2.80;;
5549;SDS011;2798;42.716;23.256;2023-02-20T05:04:35;2.67;;;2.47;;
5549;SDS011;2798;42.716;23.256;2023-02-20T05:07:00;2.77;;;2.40;;
5549;SDS011;2798;42.716;23.256;2023-02-20T05:09:25;3.60;;;2.77;;
5549;SDS011;2798;42.716;23.256;2023-02-20T05:11:51;3.43;;;2.60;;
5549;SDS011;2798;42.716;23.256;2023-02-20T05:14:16;4.33;;;2.40;;
5549;SDS011;2798;42.716;23.256;2023-02-20T05:16:41;3.00;;;2.70;;
5549;SDS011;2798;42.716;23.256;2023-02-20T05:19:09;3.07;;;2.77;;
5549;SDS011;2798;42.716;23.256;2023-02-20T05:21:34;8.63;;;3.37;;
5549;SDS011;2798;42.716;23.256;2023-02-20T05:24:18;3.43;;;3.00;;
5549;SDS011;2798;42.716;23.256;2023-02-20T05:26:44;3.40;;;3.10;;
5549;SDS011;2798;42.716;23.256;2023-02-20T05:29:09;7.10;;;3.40;;
5549;SDS011;2798;42.716;23.256;2023-02-20T05:31:36;4.10;;;3.30;;
5549;SDS011;2798;42.716;23.256;2023-02-20T05:34:02;6.33;;;3.40;;
5549;SDS011;2798;42.716;23.256;2023-02-20T05:36:27;3.93;;;3.43;;
5549;SDS011;2798;42.716;23.256;2023-02-20T05:38:52;4.33;;;3.90;;
5549;SDS011;2798;42.716;23.256;2023-02-20T05:41:18;4.87;;;4.20;;
5549;SDS011;2798;42.716;23.256;2023-02-20T05:43:43;12.70;;;4.53;;
5549;SDS011;2798;42.716;23.256;2023-02-20T05:46:09;10.00;;;4.57;;
5549;SDS011;2798;42.716;23.256;2023-02-20T05:48:34;4.93;;;4.20;;
5549;SDS011;2798;42.716;23.256;2023-02-20T05:50:59;6.70;;;5.53;;
5549;SDS011;2798;42.716;23.256;2023-02-20T05:53:28;6.37;;;5.00;;
5549;SDS011;2798;42.716;23.256;2023-02-20T05:55:53;8.90;;;4.73;;
5549;SDS011;2798;42.716;23.256;2023-02-20T05:58:19;6.20;;;4.87;;
5549;SDS011;2798;42.716;23.256;2023-02-20T06:00:44;6.07;;;4.43;;
5549;SDS011;2798;42.716;23.256;2023-02-20T06:03:09;7.80;;;4.77;;
5549;SDS011;2798;42.716;23.256;2023-02-20T06:05:35;4.97;;;4.47;;
5549;SDS011;2798;42.716;23.256;2023-02-20T06:08:00;5.40;;;4.63;;
5549;SDS011;2798;42.716;23.256;2023-02-20T06:10:25;5.23;;;4.60;;
5549;SDS011;2798;42.716;23.256;2023-02-20T06:12:51;5.60;;;4.17;;
5549;SDS011;2798;42.716;23.256;2023-02-20T06:15:16;6.97;;;4.23;;
5549;SDS011;2798;42.716;23.256;2023-02-20T06:17:41;4.60;;;3.87;;
5549;SDS011;2798;42.716;23.256;2023-02-20T06:20:07;4.33;;;3.77;;
5549;SDS011;2798;42.716;23.256;2023-02-20T06:22:32;4.80;;;4.20;;
5549;SDS011;2798;42.716;23.256;2023-02-20T06:24:57;5.07;;;4.07;;
5549;SDS011;2798;42.716;23.256;2023-02-20T06:27:22;5.20;;;4.10;;
5549;SDS011;2798;42.716;23.256;2023-02-20T06:29:48;4.43;;;3.80;;
5549;SDS011;2798;42.716;23.256;2023-02-20T06:32:13;8.30;;;4.30;;
5549;SDS011;2798;42.716;23.256;2023-02-20T06:34:38;5.73;;;4.20;;
5549;SDS011;2798;42.716;23.256;2023-02-20T06:37:04;5.23;;;4.67;;
5549;SDS011;2798;42.716;23.256;2023-02-20T06:39:30;5.50;;;3.90;;
5549;SDS011;2798;42.716;23.256;2023-02-20T06:41:55;6.70;;;4.93;;
5549;SDS011;2798;42.716;23.256;2023-02-20T06:44:20;4.77;;;3.20;;
5549;SDS011;2798;42.716;23.256;2023-02-20T06:46:46;5.23;;;3.87;;
5549;SDS011;2798;42.716;23.256;2023-02-20T06:49:12;6.83;;;4.57;;
5549;SDS011;2798;42.716;23.256;2023-02-20T06:51:37;6.10;;;4.40;;
5549;SDS011;2798;42.716;23.256;2023-02-20T06:54:04;7.13;;;5.33;;
5549;SDS011;2798;42.716;23.256;2023-02-20T06:56:30;7.97;;;5.07;;
5549;SDS011;2798;42.716;23.256;2023-02-20T06:58:56;9.07;;;4.60;;
5549;SDS011;2798;42.716;23.256;2023-02-20T07:01:22;5.50;;;4.60;;
5549;SDS011;2798;42.716;23.256;2023-02-20T07:03:48;4.20;;;3.70;;
5549;SDS011;2798;42.716;23.256;2023-02-20T07:06:14;5.57;;;4.23;;
5549;SDS011;2798;42.716;23.256;2023-02-20T07:08:39;7.03;;;4.80;;
5549;SDS011;2798;42.716;23.256;2023-02-20T07:11:04;6.67;;;3.77;;
5549;SDS011;2798;42.716;23.256;2023-02-20T07:13:30;5.87;;;4.00;;
5549;SDS011;2798;42.716;23.256;2023-02-20T07:15:55;4.03;;;3.47;;
5549;SDS011;2798;42.716;23.256;2023-02-20T07:18:20;5.57;;;3.80;;
5549;SDS011;2798;42.716;23.256;2023-02-20T07:20:49;5.40;;;3.47;;
5549;SDS011;2798;42.716;23.256;2023-02-20T07:23:15;4.20;;;3.60;;
5549;SDS011;2798;42.716;23.256;2023-02-20T07:25:40;3.53;;;3.20;;
5549;SDS011;2798;42.716;23.256;2023-02-20T07:28:05;4.33;;;3.80;;
5549;SDS011;2798;42.716;23.256;2023-02-20T07:30:32;4.40;;;3.13;;
5549;SDS011;2798;42.716;23.256;2023-02-20T07:32:57;5.80;;;3.33;;
5549;SDS011;2798;42.716;23.256;2023-02-20T07:35:22;7.73;;;3.40;;
5549;SDS011;2798;42.716;23.256;2023-02-20T07:37:48;9.30;;;4.07;;
5549;SDS011;2798;42.716;23.256;2023-02-20T07:40:13;13.30;;;4.77;;
5549;SDS011;2798;42.716;23.256;2023-02-20T07:42:38;19.47;;;5.33;;
5549;SDS011;2798;42.716;23.256;2023-02-20T07:45:03;16.27;;;5.33;;
5549;SDS011;2798;42.716;23.256;2023-02-20T07:47:29;17.70;;;5.37;;
5549;SDS011;2798;42.716;23.256;2023-02-20T07:49:54;18.97;;;4.57;;
5549;SDS011;2798;42.716;23.256;2023-02-20T07:52:19;17.27;;;5.40;;
5549;SDS011;2798;42.716;23.256;2023-02-20T07:54:45;14.47;;;4.57;;
5549;SDS011;2798;42.716;23.256;2023-02-20T07:57:10;14.97;;;4.87;;
5549;SDS011;2798;42.716;23.256;2023-02-20T07:59:35;11.83;;;4.00;;
5549;SDS011;2798;42.716;23.256;2023-02-20T08:02:00;14.57;;;4.00;;
5549;SDS011;2798;42.716;23.256;2023-02-20T08:04:26;14.77;;;4.70;;
5549;SDS011;2798;42.716;23.256;2023-02-20T08:06:51;12.17;;;4.20;;
5549;SDS011;2798;42.716;23.256;2023-02-20T08:09:17;13.70;;;4.63;;
5549;SDS011;2798;42.716;23.256;2023-02-20T08:14:06;5.30;;;2.90;;
5549;SDS011;2798;42.716;23.256;2023-02-20T08:16:32;3.03;;;1.50;;
5549;SDS011;2798;42.716;23.256;2023-02-20T08:18:58;2.17;;;1.40;;
5549;SDS011;2798;42.716;23.256;2023-02-20T08:21:23;2.37;;;1.97;;
5549;SDS011;2798;42.716;23.256;2023-02-20T08:23:48;2.40;;;1.63;;
5549;SDS011;2798;42.716;23.256;2023-02-20T08:26:13;7.67;;;1.80;;
5549;SDS011;2798;42.716;23.256;2023-02-20T08:28:39;1.73;;;1.60;;
5549;SDS011;2798;42.716;23.256;2023-02-20T08:31:04;3.73;;;2.53;;
5549;SDS011;2798;42.716;23.256;2023-02-20T08:33:29;6.80;;;2.70;;
5549;SDS011;2798;42.716;23.256;2023-02-20T08:35:55;9.80;;;2.50;;
5549;SDS011;2798;42.716;23.256;2023-02-20T08:38:34;3.00;;;2.30;;
5549;SDS011;2798;42.716;23.256;2023-02-20T08:41:04;7.80;;;3.33;;
5549;SDS011;2798;42.716;23.256;2023-02-20T08:43:30;7.57;;;3.40;;
5549;SDS011;2798;42.716;23.256;2023-02-20T08:45:56;10.57;;;3.10;;
5549;SDS011;2798;42.716;23.256;2023-02-20T08:48:21;6.83;;;3.47;;
5549;SDS011;2798;42.716;23.256;2023-02-20T08:50:46;5.73;;;2.60;;
5549;SDS011;2798;42.716;23.256;2023-02-20T08:53:12;5.13;;;2.80;;
5549;SDS011;2798;42.716;23.256;2023-02-20T08:55:38;10.57;;;3.10;;
5549;SDS011;2798;42.716;23.256;2023-02-20T08:58:03;5.83;;;3.50;;
5549;SDS011;2798;42.716;23.256;2023-02-20T09:00:28;9.03;;;3.17;;
5549;SDS011;2798;42.716;23.256;2023-02-20T09:02:54;5.57;;;2.87;;
5549;SDS011;2798;42.716;23.256;2023-02-20T09:05:19;4.50;;;2.83;;
5549;SDS011;2798;42.716;23.256;2023-02-20T09:07:44;7.07;;;2.80;;
5549;SDS011;2798;42.716;23.256;2023-02-20T09:10:09;7.30;;;3.20;;
5549;SDS011;2798;42.716;23.256;2023-02-20T09:12:35;12.10;;;3.30;;
5549;SDS011;2798;42.716;23.256;2023-02-20T09:15:00;12.37;;;3.77;;
5549;SDS011;2798;42.716;23.256;2023-02-20T09:17:26;6.00;;;3.20;;
5549;SDS011;2798;42.716;23.256;2023-02-20T09:19:52;9.27;;;2.70;;
5549;SDS011;2798;42.716;23.256;2023-02-20T09:22:21;12.10;;;3.33;;
5549;SDS011;2798;42.716;23.256;2023-02-20T09:24:47;4.30;;;2.83;;
5549;SDS011;2798;42.716;23.256;2023-02-20T09:27:12;9.60;;;2.60;;
5549;SDS011;2798;42.716;23.256;2023-02-20T09:29:37;5.73;;;3.10;;
5549;SDS011;2798;42.716;23.256;2023-02-20T09:32:21;7.63;;;2.60;;
5549;SDS011;2798;42.716;23.256;2023-02-20T09:34:46;3.93;;;2.83;;
5549;SDS011;2798;42.716;23.256;2023-02-20T09:37:13;6.80;;;2.70;;
5549;SDS011;2798;42.716;23.256;2023-02-20T09:39:38;4.63;;;2.80;;
5549;SDS011;2798;42.716;23.256;2023-02-20T09:47:40;6.30;;;3.27;;
5549;SDS011;2798;42.716;23.256;2023-02-20T09:50:10;11.07;;;3.10;;
5549;SDS011;2798;42.716;23.256;2023-02-20T09:52:37;9.70;;;3.10;;
5549;SDS011;2798;42.716;23.256;2023-02-20T09:55:05;4.97;;;2.63;;
5549;SDS011;2798;42.716;23.256;2023-02-20T09:57:32;3.80;;;2.60;;
5549;SDS011;2798;42.716;23.256;2023-02-20T10:00:05;6.20;;;2.73;;
5549;SDS011;2798;42.716;23.256;2023-02-20T10:04:58;3.73;;;2.53;;
5549;SDS011;2798;42.716;23.256;2023-02-20T10:07:30;3.80;;;2.87;;
5549;SDS011;2798;42.716;23.256;2023-02-20T10:09:56;3.77;;;2.57;;
5549;SDS011;2798;42.716;23.256;2023-02-20T10:12:32;6.03;;;3.07;;
5549;SDS011;2798;42.716;23.256;2023-02-20T10:17:32;5.07;;;2.83;;
5549;SDS011;2798;42.716;23.256;2023-02-20T10:22:36;6.80;;;3.03;;
5549;SDS011;2798;42.716;23.256;2023-02-20T10:30:03;4.83;;;2.63;;
5549;SDS011;2798;42.716;23.256;2023-02-20T10:35:22;4.90;;;2.63;;
5549;SDS011;2798;42.716;23.256;2023-02-20T10:37:50;5.40;;;2.73;;
5549;SDS011;2798;42.716;23.256;2023-02-20T10:40:27;5.67;;;2.53;;
5549;SDS011;2798;42.716;23.256;2023-02-20T10:50:30;2.47;;;1.97;;
5549;SDS011;2798;42.716;23.256;2023-02-20T10:53:02;5.23;;;2.43;;
5549;SDS011;2798;42.716;23.256;2023-02-20T10:58:14;4.47;;;2.40;;
5549;SDS011;2798;42.716;23.256;2023-02-20T11:00:42;2.33;;;2.03;;
5549;SDS011;2798;42.716;23.256;2023-02-20T11:03:11;5.60;;;2.83;;
5549;SDS011;2798;42.716;23.256;2023-02-20T11:05:39;7.43;;;3.00;;
5549;SDS011;2798;42.716;23.256;2023-02-20T11:08:07;4.67;;;2.70;;
5549;SDS011;2798;42.716;23.256;2023-02-20T11:10:32;3.07;;;2.40;;
5549;SDS011;2798;42.716;23.256;2023-02-20T11:12:59;6.70;;;2.50;;
5549;SDS011;2798;42.716;23.256;2023-02-20T11:15:25;3.13;;;2.60;;
5549;SDS011;2798;42.716;23.256;2023-02-20T11:17:53;5.23;;;2.30;;
5549;SDS011;2798;42.716;23.256;2023-02-20T11:22:55;2.10;;;1.90;;
5549;SDS011;2798;42.716;23.256;2023-02-20T11:28:15;2.97;;;1.90;;
5549;SDS011;2798;42.716;23.256;2023-02-20T11:30:41;1.67;;;1.57;;
5549;SDS011;2798;42.716;23.256;2023-02-20T11:35:40;2.33;;;2.10;;
5549;SDS011;2798;42.716;23.256;2023-02-20T11:43:21;2.50;;;2.10;;
5549;SDS011;2798;42.716;23.256;2023-02-20T11:45:47;3.40;;;2.03;;
5549;SDS011;2798;42.716;23.256;2023-02-20T11:48:16;2.70;;;2.20;;
5549;SDS011;2798;42.716;23.256;2023-02-20T11:53:27;2.30;;;2.07;;
5549;SDS011;2798;42.716;23.256;2023-02-20T11:56:15;2.80;;;2.20;;
5549;SDS011;2798;42.716;23.256;2023-02-20T11:58:39;10.90;;;2.30;;
5549;SDS011;2798;42.716;23.256;2023-02-20T12:01:05;3.17;;;2.40;;
5549;SDS011;2798;42.716;23.256;2023-02-20T12:03:31;2.50;;;2.00;;
5549;SDS011;2798;42.716;23.256;2023-02-20T12:05:58;2.73;;;2.20;;
5549;SDS011;2798;42.716;23.256;2023-02-20T12:11:40;3.83;;;2.37;;
5549;SDS011;2798;42.716;23.256;2023-02-20T12:13:48;4.33;;;2.90;;
5549;SDS011;2798;42.716;23.256;2023-02-20T12:18:44;5.73;;;2.97;;
5549;SDS011;2798;42.716;23.256;2023-02-20T12:21:19;6.00;;;3.10;;
5549;SDS011;2798;42.716;23.256;2023-02-20T12:32:11;5.30;;;2.60;;
5549;SDS011;2798;42.716;23.256;2023-02-20T12:34:38;9.63;;;3.20;;
5549;SDS011;2798;42.716;23.256;2023-02-20T12:42:18;2.40;;;1.70;;
5549;SDS011;2798;42.716;23.256;2023-02-20T12:50:06;5.30;;;2.60;;
5549;SDS011;2798;42.716;23.256;2023-02-20T12:58:13;3.33;;;2.17;;
5549;SDS011;2798;42.716;23.256;2023-02-20T13:00:44;3.33;;;2.07;;
5549;SDS011;2798;42.716;23.256;2023-02-20T13:05:43;8.77;;;2.60;;
5549;SDS011;2798;42.716;23.256;2023-02-20T13:08:24;5.50;;;3.07;;
5549;SDS011;2798;42.716;23.256;2023-02-20T13:10:54;3.60;;;2.20;;
5549;SDS011;2798;42.716;23.256;2023-02-20T13:13:20;5.07;;;2.97;;
5549;SDS011;2798;42.716;23.256;2023-02-20T13:18:20;5.00;;;2.50;;
5549;SDS011;2798;42.716;23.256;2023-02-20T13:21:29;5.37;;;2.90;;
5549;SDS011;2798;42.716;23.256;2023-02-20T13:23:36;7.63;;;2.80;;
5549;SDS011;2798;42.716;23.256;2023-02-20T13:26:03;10.50;;;2.70;;
5549;SDS011;2798;42.716;23.256;2023-02-20T13:28:47;6.30;;;2.43;;
5549;SDS011;2798;42.716;23.256;2023-02-20T13:31:14;4.00;;;2.40;;
5549;SDS011;2798;42.716;23.256;2023-02-20T13:33:41;4.20;;;2.50;;
5549;SDS011;2798;42.716;23.256;2023-02-20T13:36:18;3.00;;;1.83;;
5549;SDS011;2798;42.716;23.256;2023-02-20T13:46:59;7.83;;;2.73;;
5549;SDS011;2798;42.716;23.256;2023-02-20T13:54:57;5.43;;;2.77;;
5549;SDS011;2798;42.716;23.256;2023-02-20T13:57:23;6.47;;;3.20;;
5549;SDS011;2798;42.716;23.256;2023-02-20T13:59:51;6.77;;;3.20;;
5549;SDS011;2798;42.716;23.256;2023-02-20T14:02:18;6.80;;;3.23;;
5549;SDS011;2798;42.716;23.256;2023-02-20T14:04:55;6.50;;;3.20;;
5549;SDS011;2798;42.716;23.256;2023-02-20T14:07:30;7.07;;;3.23;;
5549;SDS011;2798;42.716;23.256;2023-02-20T14:10:00;8.10;;;3.53;;
5549;SDS011;2798;42.716;23.256;2023-02-20T14:12:25;7.30;;;3.33;;
5549;SDS011;2798;42.716;23.256;2023-02-20T14:14:51;7.00;;;2.90;;
5549;SDS011;2798;42.716;23.256;2023-02-20T14:17:19;7.60;;;3.13;;
5549;SDS011;2798;42.716;23.256;2023-02-20T14:19:46;13.10;;;3.93;;
5549;SDS011;2798;42.716;23.256;2023-02-20T14:22:31;4.83;;;2.50;;
5549;SDS011;2798;42.716;23.256;2023-02-20T14:27:31;4.17;;;2.43;;
5549;SDS011;2798;42.716;23.256;2023-02-20T14:30:07;10.10;;;3.33;;
5549;SDS011;2798;42.716;23.256;2023-02-20T14:32:33;6.17;;;2.80;;
5549;SDS011;2798;42.716;23.256;2023-02-20T14:35:12;7.83;;;3.43;;
5549;SDS011;2798;42.716;23.256;2023-02-20T14:43:01;7.10;;;3.10;;
5549;SDS011;2798;42.716;23.256;2023-02-20T14:45:27;9.40;;;3.40;;
5549;SDS011;2798;42.716;23.256;2023-02-20T14:47:53;9.73;;;3.63;;
5549;SDS011;2798;42.716;23.256;2023-02-20T14:50:21;11.23;;;4.10;;
5549;SDS011;2798;42.716;23.256;2023-02-20T14:52:46;11.50;;;4.07;;
5549;SDS011;2798;42.716;23.256;2023-02-20T14:55:24;9.50;;;3.33;;
5549;SDS011;2798;42.716;23.256;2023-02-20T14:57:49;7.27;;;3.17;;
5549;SDS011;2798;42.716;23.256;2023-02-20T15:02:45;8.33;;;3.27;;
5549;SDS011;2798;42.716;23.256;2023-02-20T15:05:16;10.27;;;3.60;;
5549;SDS011;2798;42.716;23.256;2023-02-20T15:07:43;11.13;;;3.80;;
5549;SDS011;2798;42.716;23.256;2023-02-20T15:10:28;10.60;;;3.73;;
5549;SDS011;2798;42.716;23.256;2023-02-20T15:12:59;9.77;;;3.70;;
5549;SDS011;2798;42.716;23.256;2023-02-20T15:15:26;10.93;;;3.73;;
5549;SDS011;2798;42.716;23.256;2023-02-20T15:18:04;10.20;;;3.20;;
5549;SDS011;2798;42.716;23.256;2023-02-20T15:25:32;9.23;;;3.43;;
5549;SDS011;2798;42.716;23.256;2023-02-20T15:28:32;11.47;;;4.03;;
5549;SDS011;2798;42.716;23.256;2023-02-20T15:33:34;9.40;;;3.83;;
5549;SDS011;2798;42.716;23.256;2023-02-20T15:36:00;12.07;;;4.30;;
5549;SDS011;2798;42.716;23.256;2023-02-20T15:38:29;12.87;;;4.57;;
5549;SDS011;2798;42.716;23.256;2023-02-20T15:40:58;10.10;;;3.80;;
5549;SDS011;2798;42.716;23.256;2023-02-20T15:43:24;10.97;;;3.70;;
5549;SDS011;2798;42.716;23.256;2023-02-20T15:45:49;12.30;;;4.23;;
5549;SDS011;2798;42.716;23.256;2023-02-20T15:48:14;9.13;;;3.70;;
5549;SDS011;2798;42.716;23.256;2023-02-20T15:50:40;7.90;;;3.40;;
5549;SDS011;2798;42.716;23.256;2023-02-20T15:53:05;10.33;;;4.00;;
5549;SDS011;2798;42.716;23.256;2023-02-20T15:55:33;12.57;;;3.87;;
5549;SDS011;2798;42.716;23.256;2023-02-20T15:57:58;12.57;;;4.03;;
5549;SDS011;2798;42.716;23.256;2023-02-20T16:00:25;12.47;;;4.60;;
5549;SDS011;2798;42.716;23.256;2023-02-20T16:02:51;9.97;;;4.13;;
5549;SDS011;2798;42.716;23.256;2023-02-20T16:05:17;11.03;;;4.20;;
5549;SDS011;2798;42.716;23.256;2023-02-20T16:07:42;12.27;;;4.23;;
5549;SDS011;2798;42.716;23.256;2023-02-20T16:10:08;10.07;;;3.67;;
5549;SDS011;2798;42.716;23.256;2023-02-20T16:12:33;11.10;;;3.97;;
5549;SDS011;2798;42.716;23.256;2023-02-20T16:14:59;10.87;;;3.93;;
5549;SDS011;2798;42.716;23.256;2023-02-20T16:17:26;9.50;;;3.60;;
5549;SDS011;2798;42.716;23.256;2023-02-20T16:19:52;14.80;;;5.27;;
5549;SDS011;2798;42.716;23.256;2023-02-20T16:22:17;8.80;;;3.23;;
5549;SDS011;2798;42.716;23.256;2023-02-20T16:24:42;11.30;;;4.20;;
5549;SDS011;2798;42.716;23.256;2023-02-20T16:27:29;11.13;;;4.33;;
5549;SDS011;2798;42.716;23.256;2023-02-20T16:29:54;9.27;;;3.80;;
5549;SDS011;2798;42.716;23.256;2023-02-20T16:34:46;6.23;;;3.30;;
5549;SDS011;2798;42.716;23.256;2023-02-20T16:37:12;10.43;;;3.87;;
5549;SDS011;2798;42.716;23.256;2023-02-20T16:39:37;8.40;;;3.30;;
5549;SDS011;2798;42.716;23.256;2023-02-20T16:44:44;7.40;;;3.20;;
5549;SDS011;2798;42.716;23.256;2023-02-20T16:47:13;7.80;;;3.50;;
5549;SDS011;2798;42.716;23.256;2023-02-20T16:49:39;7.80;;;3.83;;
5549;SDS011;2798;42.716;23.256;2023-02-20T16:52:26;8.87;;;3.70;;
5549;SDS011;2798;42.716;23.256;2023-02-20T16:54:50;11.23;;;4.50;;
5549;SDS011;2798;42.716;23.256;2023-02-20T16:57:16;10.03;;;4.07;;
5549;SDS011;2798;42.716;23.256;2023-02-20T16:59:42;11.77;;;4.67;;
5549;SDS011;2798;42.716;23.256;2023-02-20T17:02:09;11.87;;;4.23;;
5549;SDS011;2798;42.716;23.256;2023-02-20T17:04:38;14.57;;;5.17;;
5549;SDS011;2798;42.716;23.256;2023-02-20T17:07:03;14.00;;;4.87;;
5549;SDS011;2798;42.716;23.256;2023-02-20T17:09:30;14.17;;;5.50;;
5549;SDS011;2798;42.716;23.256;2023-02-20T17:11:55;13.27;;;5.10;;
5549;SDS011;2798;42.716;23.256;2023-02-20T17:14:21;19.73;;;6.10;;
5549;SDS011;2798;42.716;23.256;2023-02-20T17:16:46;16.00;;;5.37;;
5549;SDS011;2798;42.716;23.256;2023-02-20T17:19:12;12.67;;;4.77;;
5549;SDS011;2798;42.716;23.256;2023-02-20T17:21:37;15.40;;;5.67;;
5549;SDS011;2798;42.716;23.256;2023-02-20T17:24:03;16.27;;;5.53;;
5549;SDS011;2798;42.716;23.256;2023-02-20T17:26:28;17.20;;;6.00;;
5549;SDS011;2798;42.716;23.256;2023-02-20T17:28:54;13.97;;;5.47;;
5549;SDS011;2798;42.716;23.256;2023-02-20T17:31:19;15.77;;;5.67;;